createdAt,value
2023-09-14T00:00:38.601Z,1001.68
2023-09-14T00:01:38.557Z,1001.67
2023-09-14T00:02:38.502Z,1001.66
2023-09-14T00:03:38.562Z,1001.67
2023-09-14T00:04:38.743Z,1001.68
2023-09-14T00:05:38.613Z,1001.69
2023-09-14T00:06:38.479Z,1001.70
2023-09-14T00:07:38.655Z,1001.70
2023-09-14T00:08:38.473Z,1001.70
2023-09-14T00:09:38.668Z,1001.70
2023-09-14T00:10:38.479Z,1001.69
2023-09-14T00:11:38.808Z,1001.69
2023-09-14T00:12:38.507Z,1001.68
2023-09-14T00:13:38.519Z,1001.68
2023-09-14T00:14:38.438Z,1001.67
2023-09-14T00:15:38.598Z,1001.66
2023-09-14T00:16:38.564Z,1001.64
2023-09-14T00:17:38.564Z,1001.63
2023-09-14T00:18:38.421Z,1001.63
2023-09-14T00:19:38.511Z,1001.64
2023-09-14T00:20:38.404Z,1001.64
2023-09-14T00:21:38.555Z,1001.64
2023-09-14T00:22:38.412Z,1001.64
2023-09-14T00:23:38.429Z,1001.63
2023-09-14T00:24:38.406Z,1001.62
2023-09-14T00:25:38.538Z,1001.62
2023-09-14T00:26:38.345Z,1001.61
2023-09-14T00:27:38.515Z,1001.59
2023-09-14T00:28:38.372Z,1001.59
2023-09-14T00:29:38.486Z,1001.59
2023-09-14T00:30:38.348Z,1001.60
2023-09-14T00:31:38.442Z,1001.60
2023-09-14T00:32:38.320Z,1001.61
2023-09-14T00:33:38.696Z,1001.62
2023-09-14T00:34:38.363Z,1001.63
2023-09-14T00:35:38.414Z,1001.64
2023-09-14T00:36:38.303Z,1001.65
2023-09-14T00:37:38.340Z,1001.66
2023-09-14T00:38:38.277Z,1001.66
2023-09-14T00:39:38.490Z,1001.66
2023-09-14T00:40:38.261Z,1001.65
2023-09-14T00:41:38.311Z,1001.66
2023-09-14T00:42:38.333Z,1001.67
2023-09-14T00:43:38.357Z,1001.68
2023-09-14T00:44:38.219Z,1001.68
2023-09-14T00:45:38.360Z,1001.67
2023-09-14T00:46:38.250Z,1001.66
2023-09-14T00:47:38.339Z,1001.66
2023-09-14T00:48:38.320Z,1001.66
2023-09-14T00:49:38.253Z,1001.68
2023-09-14T00:50:38.180Z,1001.68
2023-09-14T00:51:38.187Z,1001.69
2023-09-14T00:52:38.186Z,1001.70
2023-09-14T00:53:38.313Z,1001.72
2023-09-14T00:54:38.159Z,1001.73
2023-09-14T00:55:38.492Z,1001.73
2023-09-14T00:56:38.140Z,1001.72
2023-09-14T00:57:38.217Z,1001.70
2023-09-14T00:58:38.158Z,1001.69
2023-09-14T00:59:38.269Z,1001.69
2023-09-14T01:00:38.184Z,1001.69
2023-09-14T01:01:38.365Z,1001.70
2023-09-14T01:02:38.231Z,1001.71
2023-09-14T01:03:38.199Z,1001.73
2023-09-14T01:04:38.281Z,1001.74
2023-09-14T01:05:38.236Z,1001.76
2023-09-14T01:06:38.116Z,1001.77
2023-09-14T01:07:38.201Z,1001.78
2023-09-14T01:08:38.050Z,1001.79
2023-09-14T01:09:38.222Z,1001.77
2023-09-14T01:10:38.066Z,1001.77
2023-09-14T01:11:38.079Z,1001.75
2023-09-14T01:12:38.076Z,1001.74
2023-09-14T01:13:38.159Z,1001.74
2023-09-14T01:14:38.010Z,1001.74
2023-09-14T01:15:38.166Z,1001.74
2023-09-14T01:16:38.079Z,1001.75
2023-09-14T01:17:38.139Z,1001.76
2023-09-14T01:18:38.008Z,1001.76
2023-09-14T01:19:38.389Z,1001.77
2023-09-14T01:20:37.991Z,1001.76
2023-09-14T01:21:38.872Z,1001.76
2023-09-14T01:22:37.984Z,1001.75
2023-09-14T01:23:38.118Z,1001.74
2023-09-14T01:24:37.976Z,1001.75
2023-09-14T01:25:38.010Z,1001.74
2023-09-14T01:26:37.918Z,1001.74
2023-09-14T01:27:37.997Z,1001.75
2023-09-14T01:28:37.952Z,1001.76
2023-09-14T01:29:38.073Z,1001.76
2023-09-14T01:30:37.921Z,1001.76
2023-09-14T01:31:37.955Z,1001.76
2023-09-14T01:32:37.946Z,1001.76
2023-09-14T01:33:37.938Z,1001.75
2023-09-14T01:34:37.931Z,1001.73
2023-09-14T01:35:37.941Z,1001.72
2023-09-14T01:36:37.983Z,1001.72
2023-09-14T01:37:37.929Z,1001.71
2023-09-14T01:38:37.874Z,1001.71
2023-09-14T01:39:37.952Z,1001.71
2023-09-14T01:40:37.873Z,1001.71
2023-09-14T01:41:38.239Z,1001.72
2023-09-14T01:42:37.827Z,1001.72
2023-09-14T01:43:37.863Z,1001.73
2023-09-14T01:44:37.807Z,1001.74
2023-09-14T01:45:38.470Z,1001.75
2023-09-14T01:46:37.854Z,1001.74
2023-09-14T01:47:37.974Z,1001.74
2023-09-14T01:48:37.785Z,1001.74
2023-09-14T01:49:38.522Z,1001.76
2023-09-14T01:50:37.772Z,1001.76
2023-09-14T01:51:37.781Z,1001.77
2023-09-14T01:52:37.778Z,1001.78
2023-09-14T01:53:38.797Z,1001.77
2023-09-14T01:54:37.758Z,1001.76
2023-09-14T01:55:38.500Z,1001.76
2023-09-14T01:56:37.732Z,1001.75
2023-09-14T01:57:37.753Z,1001.74
2023-09-14T01:58:37.754Z,1001.74
2023-09-14T01:59:37.718Z,1001.73
2023-09-14T02:00:37.693Z,1001.74
2023-09-14T02:01:37.728Z,1001.74
2023-09-14T02:02:37.755Z,1001.74
2023-09-14T02:03:37.675Z,1001.75
2023-09-14T02:04:37.726Z,1001.75
2023-09-14T02:05:37.648Z,1001.76
2023-09-14T02:06:37.689Z,1001.74
2023-09-14T02:07:38.529Z,1001.74
2023-09-14T02:08:37.642Z,1001.75
2023-09-14T02:09:37.666Z,1001.75
2023-09-14T02:10:37.651Z,1001.76
2023-09-14T02:11:37.631Z,1001.77
2023-09-14T02:12:37.627Z,1001.79
2023-09-14T02:13:37.589Z,1001.80
2023-09-14T02:14:37.576Z,1001.81
2023-09-14T02:15:37.595Z,1001.82
2023-09-14T02:16:37.660Z,1001.82
2023-09-14T02:17:37.656Z,1001.84
2023-09-14T02:18:37.630Z,1001.84
2023-09-14T02:19:37.536Z,1001.86
2023-09-14T02:20:37.948Z,1001.88
2023-09-14T02:21:37.547Z,1001.91
2023-09-14T02:22:37.608Z,1001.92
2023-09-14T02:23:37.558Z,1001.94
2023-09-14T02:24:37.537Z,1001.95
2023-09-14T02:25:37.537Z,1001.95
2023-09-14T02:26:37.509Z,1001.94
2023-09-14T02:27:37.523Z,1001.94
2023-09-14T02:28:37.518Z,1001.94
2023-09-14T02:29:37.478Z,1001.95
2023-09-14T02:30:37.467Z,1001.95
2023-09-14T02:31:37.544Z,1001.94
2023-09-14T02:32:37.506Z,1001.94
2023-09-14T02:33:37.558Z,1001.93
2023-09-14T02:34:37.519Z,1001.90
2023-09-14T02:35:37.501Z,1001.89
2023-09-14T02:36:37.446Z,1001.88
2023-09-14T02:37:37.425Z,1001.87
2023-09-14T02:38:37.416Z,1001.87
2023-09-14T02:39:37.428Z,1001.87
2023-09-14T02:40:37.435Z,1001.87
2023-09-14T02:41:37.390Z,1001.88
2023-09-14T02:42:37.388Z,1001.89
2023-09-14T02:43:37.374Z,1001.89
2023-09-14T02:44:37.357Z,1001.89
2023-09-14T02:45:37.397Z,1001.90
2023-09-14T02:46:37.553Z,1001.89
2023-09-14T02:47:37.360Z,1001.89
2023-09-14T02:48:37.339Z,1001.89
2023-09-14T02:49:37.339Z,1001.90
2023-09-14T02:50:37.310Z,1001.91
2023-09-14T02:51:37.337Z,1001.91
2023-09-14T02:52:37.348Z,1001.89
2023-09-14T02:53:37.291Z,1001.88
2023-09-14T02:54:37.318Z,1001.86
2023-09-14T02:55:37.277Z,1001.85
2023-09-14T02:56:37.273Z,1001.84
2023-09-14T02:57:37.299Z,1001.84
2023-09-14T02:58:37.332Z,1001.84
2023-09-14T02:59:37.275Z,1001.85
2023-09-14T03:00:37.285Z,1001.86
2023-09-14T03:01:37.254Z,1001.86
2023-09-14T03:02:37.291Z,1001.87
2023-09-14T03:03:37.351Z,1001.88
2023-09-14T03:04:37.293Z,1001.87
2023-09-14T03:05:37.221Z,1001.86
2023-09-14T03:06:37.233Z,1001.87
2023-09-14T03:07:37.202Z,1001.88
2023-09-14T03:08:37.223Z,1001.88
2023-09-14T03:09:37.215Z,1001.90
2023-09-14T03:10:37.313Z,1001.90
2023-09-14T03:11:37.183Z,1001.92
2023-09-14T03:12:37.242Z,1001.93
2023-09-14T03:13:37.188Z,1001.94
2023-09-14T03:14:37.183Z,1001.94
2023-09-14T03:15:37.220Z,1001.95
2023-09-14T03:16:37.348Z,1001.96
2023-09-14T03:17:37.158Z,1001.97
2023-09-14T03:18:37.184Z,1001.98
2023-09-14T03:19:37.131Z,1001.98
2023-09-14T03:20:37.134Z,1001.98
2023-09-14T03:21:37.148Z,1001.98
2023-09-14T03:22:37.136Z,1001.99
2023-09-14T03:23:37.101Z,1001.99
2023-09-14T03:24:37.231Z,1002.00
2023-09-14T03:25:37.055Z,1002.02
2023-09-14T03:26:37.071Z,1002.05
2023-09-14T03:27:37.084Z,1002.08
2023-09-14T03:28:37.107Z,1002.09
2023-09-14T03:29:37.058Z,1002.07
2023-09-14T03:30:37.074Z,1002.07
2023-09-14T03:31:37.090Z,1002.09
2023-09-14T03:32:37.062Z,1002.09
2023-09-14T03:33:37.070Z,1002.11
2023-09-14T03:34:37.064Z,1002.12
2023-09-14T03:35:37.024Z,1002.13
2023-09-14T03:36:37.077Z,1002.14
2023-09-14T03:37:37.008Z,1002.15
2023-09-14T03:38:37.006Z,1002.16
2023-09-14T03:39:37.013Z,1002.15
2023-09-14T03:40:37.017Z,1002.15
2023-09-14T03:41:36.984Z,1002.16
2023-09-14T03:42:37.036Z,1002.17
2023-09-14T03:43:36.972Z,1002.16
2023-09-14T03:44:36.961Z,1002.15
2023-09-14T03:45:37.046Z,1002.15
2023-09-14T03:46:37.061Z,1002.15
2023-09-14T03:47:36.994Z,1002.16
2023-09-14T03:48:36.950Z,1002.18
2023-09-14T03:49:36.898Z,1002.19
2023-09-14T03:50:36.945Z,1002.20
2023-09-14T03:51:36.964Z,1002.20
2023-09-14T03:52:37.062Z,1002.20
2023-09-14T03:53:36.905Z,1002.19
2023-09-14T03:54:36.920Z,1002.19
2023-09-14T03:55:36.869Z,1002.19
2023-09-14T03:56:36.860Z,1002.20
2023-09-14T03:57:36.938Z,1002.20
2023-09-14T03:58:36.930Z,1002.20
2023-09-14T03:59:36.846Z,1002.19
2023-09-14T04:00:36.947Z,1002.20
2023-09-14T04:01:36.861Z,1002.21
2023-09-14T04:02:36.886Z,1002.21
2023-09-14T04:03:36.904Z,1002.21
2023-09-14T04:04:36.890Z,1002.21
2023-09-14T04:05:36.845Z,1002.22
2023-09-14T04:06:36.834Z,1002.22
2023-09-14T04:07:36.782Z,1002.23
2023-09-14T04:08:36.786Z,1002.23
2023-09-14T04:09:36.827Z,1002.23
2023-09-14T04:10:36.815Z,1002.24
2023-09-14T04:11:36.776Z,1002.23
2023-09-14T04:12:36.780Z,1002.22
2023-09-14T04:13:36.777Z,1002.22
2023-09-14T04:14:36.757Z,1002.21
2023-09-14T04:15:36.726Z,1002.21
2023-09-14T04:16:36.880Z,1002.20
2023-09-14T04:17:36.752Z,1002.21
2023-09-14T04:18:36.847Z,1002.23
2023-09-14T04:19:36.719Z,1002.23
2023-09-14T04:20:36.698Z,1002.24
2023-09-14T04:21:36.739Z,1002.23
2023-09-14T04:22:36.754Z,1002.22
2023-09-14T04:23:36.690Z,1002.21
2023-09-14T04:24:36.685Z,1002.21
2023-09-14T04:25:36.653Z,1002.22
2023-09-14T04:26:36.645Z,1002.21
2023-09-14T04:27:36.688Z,1002.21
2023-09-14T04:28:36.711Z,1002.21
2023-09-14T04:29:36.627Z,1002.24
2023-09-14T04:30:36.645Z,1002.25
2023-09-14T04:31:36.677Z,1002.25
2023-09-14T04:32:36.625Z,1002.26
2023-09-14T04:33:36.607Z,1002.26
2023-09-14T04:34:36.607Z,1002.26
2023-09-14T04:35:36.572Z,1002.26
2023-09-14T04:36:36.604Z,1002.26
2023-09-14T04:37:36.546Z,1002.26
2023-09-14T04:38:36.563Z,1002.25
2023-09-14T04:39:36.561Z,1002.25
2023-09-14T04:40:36.584Z,1002.25
2023-09-14T04:41:36.520Z,1002.27
2023-09-14T04:42:36.530Z,1002.29
2023-09-14T04:43:36.523Z,1002.30
2023-09-14T04:44:36.496Z,1002.30
2023-09-14T04:45:36.590Z,1002.29
2023-09-14T04:46:36.723Z,1002.30
2023-09-14T04:47:36.508Z,1002.30
2023-09-14T04:48:36.681Z,1002.30
2023-09-14T04:49:36.461Z,1002.30
2023-09-14T04:50:36.483Z,1002.29
2023-09-14T04:51:36.487Z,1002.29
2023-09-14T04:52:36.521Z,1002.29
2023-09-14T04:53:36.442Z,1002.29
2023-09-14T04:54:36.461Z,1002.29
2023-09-14T04:55:36.411Z,1002.29
2023-09-14T04:56:36.428Z,1002.28
2023-09-14T04:57:36.579Z,1002.28
2023-09-14T04:58:36.484Z,1002.29
2023-09-14T04:59:36.414Z,1002.29
2023-09-14T05:00:36.426Z,1002.30
2023-09-14T05:01:36.430Z,1002.29
2023-09-14T05:02:36.393Z,1002.30
2023-09-14T05:03:36.415Z,1002.30
2023-09-14T05:04:36.503Z,1002.31
2023-09-14T05:05:36.346Z,1002.32
2023-09-14T05:06:36.365Z,1002.33
2023-09-14T05:07:36.330Z,1002.34
2023-09-14T05:08:36.353Z,1002.35
2023-09-14T05:09:36.370Z,1002.35
2023-09-14T05:10:36.434Z,1002.35
2023-09-14T05:11:36.304Z,1002.36
2023-09-14T05:12:36.350Z,1002.37
2023-09-14T05:13:36.318Z,1002.37
2023-09-14T05:14:36.282Z,1002.38
2023-09-14T05:15:36.293Z,1002.38
2023-09-14T05:16:36.329Z,1002.39
2023-09-14T05:17:36.336Z,1002.40
2023-09-14T05:18:36.304Z,1002.41
2023-09-14T05:19:36.279Z,1002.42
2023-09-14T05:20:36.272Z,1002.43
2023-09-14T05:21:36.252Z,1002.44
2023-09-14T05:22:36.301Z,1002.45
2023-09-14T05:23:36.239Z,1002.47
2023-09-14T05:24:36.221Z,1002.49
2023-09-14T05:25:36.230Z,1002.50
2023-09-14T05:26:36.289Z,1002.50
2023-09-14T05:27:36.190Z,1002.51
2023-09-14T05:28:36.267Z,1002.51
2023-09-14T05:29:36.218Z,1002.51
2023-09-14T05:30:36.228Z,1002.53
2023-09-14T05:31:36.238Z,1002.54
2023-09-14T05:32:36.216Z,1002.55
2023-09-14T05:33:36.150Z,1002.56
2023-09-14T05:34:36.220Z,1002.58
2023-09-14T05:35:36.164Z,1002.59
2023-09-14T05:36:36.147Z,1002.58
2023-09-14T05:37:36.143Z,1002.58
2023-09-14T05:38:36.118Z,1002.57
2023-09-14T05:39:36.114Z,1002.57
2023-09-14T05:40:36.165Z,1002.57
2023-09-14T05:41:36.115Z,1002.58
2023-09-14T05:42:36.109Z,1002.58
2023-09-14T05:43:36.117Z,1002.58
2023-09-14T05:44:36.102Z,1002.58
2023-09-14T05:45:36.106Z,1002.59
2023-09-14T05:46:36.175Z,1002.59
2023-09-14T05:47:36.093Z,1002.60
2023-09-14T05:48:36.078Z,1002.61
2023-09-14T05:49:36.053Z,1002.63
2023-09-14T05:50:36.051Z,1002.63
2023-09-14T05:51:36.059Z,1002.63
2023-09-14T05:52:39.186Z,1002.61
2023-09-14T05:53:36.018Z,1002.61
2023-09-14T05:54:36.040Z,1002.62
2023-09-14T05:55:36.010Z,1002.62
2023-09-14T05:56:36.042Z,1002.62
2023-09-14T05:57:36.021Z,1002.63
2023-09-14T05:58:36.070Z,1002.64
2023-09-14T05:59:35.991Z,1002.63
2023-09-14T06:00:35.985Z,1002.62
2023-09-14T06:01:36.010Z,1002.61
2023-09-14T06:02:35.971Z,1002.62
2023-09-14T06:03:35.979Z,1002.63
2023-09-14T06:04:36.038Z,1002.65
2023-09-14T06:05:35.981Z,1002.65
2023-09-14T06:06:35.936Z,1002.65
2023-09-14T06:07:35.927Z,1002.65
2023-09-14T06:08:35.906Z,1002.66
2023-09-14T06:09:35.953Z,1002.66
2023-09-14T06:10:35.965Z,1002.68
2023-09-14T06:11:35.902Z,1002.69
2023-09-14T06:12:35.886Z,1002.71
2023-09-14T06:13:35.902Z,1002.74
2023-09-14T06:14:35.878Z,1002.75
2023-09-14T06:15:35.856Z,1002.75
2023-09-14T06:16:35.993Z,1002.74
2023-09-14T06:17:35.861Z,1002.72
2023-09-14T06:18:35.868Z,1002.72
2023-09-14T06:19:35.847Z,1002.72
2023-09-14T06:20:35.843Z,1002.73
2023-09-14T06:21:35.829Z,1002.73
2023-09-14T06:22:35.836Z,1002.74
2023-09-14T06:23:35.810Z,1002.74
2023-09-14T06:24:35.834Z,1002.75
2023-09-14T06:25:35.795Z,1002.77
2023-09-14T06:26:35.811Z,1002.79
2023-09-14T06:27:35.774Z,1002.81
2023-09-14T06:28:35.818Z,1002.82
2023-09-14T06:29:35.769Z,1002.82
2023-09-14T06:30:35.784Z,1002.82
2023-09-14T06:31:35.795Z,1002.82
2023-09-14T06:32:35.792Z,1002.83
2023-09-14T06:33:35.781Z,1002.83
2023-09-14T06:34:35.807Z,1002.83
2023-09-14T06:35:35.873Z,1002.83
2023-09-14T06:36:35.723Z,1002.84
2023-09-14T06:37:35.729Z,1002.85
2023-09-14T06:38:35.699Z,1002.86
2023-09-14T06:39:35.709Z,1002.87
2023-09-14T06:40:35.744Z,1002.88
2023-09-14T06:41:35.676Z,1002.89
2023-09-14T06:42:35.707Z,1002.90
2023-09-14T06:43:35.680Z,1002.91
2023-09-14T06:44:35.661Z,1002.91
2023-09-14T06:45:35.712Z,1002.92
2023-09-14T06:46:35.837Z,1002.94
2023-09-14T06:47:35.699Z,1002.95
2023-09-14T06:48:35.636Z,1002.96
2023-09-14T06:49:35.623Z,1002.96
2023-09-14T06:50:35.650Z,1002.97
2023-09-14T06:51:35.647Z,1002.98
2023-09-14T06:52:35.663Z,1002.99
2023-09-14T06:53:35.612Z,1002.99
2023-09-14T06:54:35.615Z,1003.00
2023-09-14T06:55:35.591Z,1003.01
2023-09-14T06:56:35.582Z,1003.01
2023-09-14T06:57:35.579Z,1003.01
2023-09-14T06:58:35.688Z,1003.00
2023-09-14T06:59:35.630Z,1003.00
2023-09-14T07:00:35.572Z,1003.00
2023-09-14T07:01:35.632Z,1003.01
2023-09-14T07:02:37.643Z,1003.02
2023-09-14T07:03:35.589Z,1003.02
2023-09-14T07:04:35.624Z,1003.03
2023-09-14T07:05:35.530Z,1003.04
2023-09-14T07:06:35.513Z,1003.04
2023-09-14T07:07:35.506Z,1003.05
2023-09-14T07:08:35.493Z,1003.05
2023-09-14T07:09:35.487Z,1003.06
2023-09-14T07:10:35.521Z,1003.07
2023-09-14T07:11:35.474Z,1003.07
2023-09-14T07:12:35.453Z,1003.08
2023-09-14T07:13:35.457Z,1003.08
2023-09-14T07:14:35.459Z,1003.10
2023-09-14T07:15:35.439Z,1003.11
2023-09-14T07:16:35.549Z,1003.12
2023-09-14T07:17:35.469Z,1003.13
2023-09-14T07:18:35.415Z,1003.13
2023-09-14T07:19:35.412Z,1003.12
2023-09-14T07:20:35.430Z,1003.12
2023-09-14T07:21:35.392Z,1003.13
2023-09-14T07:22:35.435Z,1003.13
2023-09-14T07:23:35.373Z,1003.14
2023-09-14T07:24:35.360Z,1003.14
2023-09-14T07:25:35.373Z,1003.15
2023-09-14T07:26:35.358Z,1003.15
2023-09-14T07:27:35.360Z,1003.15
2023-09-14T07:28:35.390Z,1003.16
2023-09-14T07:29:35.341Z,1003.16
2023-09-14T07:30:35.324Z,1003.17
2023-09-14T07:31:35.424Z,1003.17
2023-09-14T07:32:35.384Z,1003.18
2023-09-14T07:33:35.320Z,1003.18
2023-09-14T07:34:35.334Z,1003.19
2023-09-14T07:35:35.301Z,1003.18
2023-09-14T07:36:35.310Z,1003.19
2023-09-14T07:37:35.306Z,1003.19
2023-09-14T07:38:35.266Z,1003.19
2023-09-14T07:39:35.278Z,1003.20
2023-09-14T07:40:35.323Z,1003.20
2023-09-14T07:41:35.270Z,1003.20
2023-09-14T07:42:35.276Z,1003.22
2023-09-14T07:43:35.246Z,1003.23
2023-09-14T07:44:35.242Z,1003.24
2023-09-14T07:45:35.341Z,1003.26
2023-09-14T07:46:35.342Z,1003.29
2023-09-14T07:47:35.241Z,1003.31
2023-09-14T07:48:35.203Z,1003.31
2023-09-14T07:49:35.192Z,1003.33
2023-09-14T07:50:35.204Z,1003.35
2023-09-14T07:51:35.187Z,1003.35
2023-09-14T07:52:35.212Z,1003.36
2023-09-14T07:53:35.222Z,1003.35
2023-09-14T07:54:35.164Z,1003.36
2023-09-14T07:55:35.169Z,1003.36
2023-09-14T07:56:35.185Z,1003.34
2023-09-14T07:57:35.168Z,1003.34
2023-09-14T07:58:35.184Z,1003.34
2023-09-14T07:59:35.129Z,1003.34
2023-09-14T08:00:36.720Z,1003.35
2023-09-14T08:01:35.109Z,1003.35
2023-09-14T08:03:36.218Z,1003.35
2023-09-14T08:04:35.250Z,1003.33
2023-09-14T08:05:35.146Z,1003.32
2023-09-14T08:06:35.072Z,1003.31
2023-09-14T08:07:35.089Z,1003.31
2023-09-14T08:08:35.064Z,1003.34
2023-09-14T08:09:35.141Z,1003.34
2023-09-14T08:10:35.089Z,1003.34
2023-09-14T08:11:35.062Z,1003.35
2023-09-14T08:12:35.101Z,1003.35
2023-09-14T08:13:35.096Z,1003.36
2023-09-14T08:14:35.028Z,1003.33
2023-09-14T08:15:35.109Z,1003.32
2023-09-14T08:16:35.120Z,1003.30
2023-09-14T08:17:35.069Z,1003.28
2023-09-14T08:18:35.017Z,1003.28
2023-09-14T08:19:35.009Z,1003.29
2023-09-14T08:20:34.989Z,1003.27
2023-09-14T08:21:35.048Z,1003.28
2023-09-14T08:22:34.975Z,1003.28
2023-09-14T08:23:34.960Z,1003.28
2023-09-14T08:24:34.989Z,1003.27
2023-09-14T08:25:34.940Z,1003.26
2023-09-14T08:26:34.940Z,1003.27
2023-09-14T08:27:34.972Z,1003.28
2023-09-14T08:28:34.952Z,1003.29
2023-09-14T08:29:34.943Z,1003.27
2023-09-14T08:30:34.924Z,1003.29
2023-09-14T08:31:35.152Z,1003.27
2023-09-14T08:32:35.007Z,1003.25
2023-09-14T08:33:34.954Z,1003.23
2023-09-14T08:34:34.890Z,1003.21
2023-09-14T08:35:34.888Z,1003.22
2023-09-14T08:36:34.871Z,1003.22
2023-09-14T08:37:34.891Z,1003.23
2023-09-14T08:38:34.874Z,1003.24
2023-09-14T08:39:34.913Z,1003.25
2023-09-14T08:40:34.872Z,1003.25
2023-09-14T08:41:34.843Z,1003.25
2023-09-14T08:42:34.839Z,1003.25
2023-09-14T08:43:35.488Z,1003.25
2023-09-14T08:44:34.803Z,1003.25
2023-09-14T08:45:34.871Z,1003.26
2023-09-14T08:46:34.844Z,1003.28
2023-09-14T08:47:34.824Z,1003.30
2023-09-14T08:48:34.778Z,1003.31
2023-09-14T08:49:34.779Z,1003.32
2023-09-14T08:50:34.774Z,1003.32
2023-09-14T08:51:34.803Z,1003.31
2023-09-14T08:52:34.759Z,1003.30
2023-09-14T08:53:34.770Z,1003.29
2023-09-14T08:54:34.742Z,1003.27
2023-09-14T08:55:34.760Z,1003.26
2023-09-14T08:56:34.946Z,1003.26
2023-09-14T08:57:34.772Z,1003.25
2023-09-14T08:58:34.738Z,1003.25
2023-09-14T08:59:34.723Z,1003.25
2023-09-14T09:00:34.746Z,1003.24
2023-09-14T09:01:34.795Z,1003.25
2023-09-14T09:02:34.719Z,1003.25
2023-09-14T09:03:36.731Z,1003.26
2023-09-14T09:04:34.716Z,1003.26
2023-09-14T09:05:34.719Z,1003.26
2023-09-14T09:06:34.795Z,1003.26
2023-09-14T09:07:34.643Z,1003.24
2023-09-14T09:08:34.650Z,1003.23
2023-09-14T09:09:34.693Z,1003.23
2023-09-14T09:10:34.652Z,1003.24
2023-09-14T09:11:34.627Z,1003.23
2023-09-14T09:12:34.632Z,1003.23
2023-09-14T09:13:34.689Z,1003.25
2023-09-14T09:14:34.607Z,1003.25
2023-09-14T09:15:34.662Z,1003.26
2023-09-14T09:16:34.617Z,1003.28
2023-09-14T09:17:34.607Z,1003.27
2023-09-14T09:18:34.613Z,1003.28
2023-09-14T09:19:34.679Z,1003.27
2023-09-14T09:20:34.632Z,1003.26
2023-09-14T09:21:34.598Z,1003.25
2023-09-14T09:22:34.556Z,1003.24
2023-09-14T09:23:34.559Z,1003.22
2023-09-14T09:24:34.531Z,1003.22
2023-09-14T09:25:34.527Z,1003.23
2023-09-14T09:26:34.510Z,1003.23
2023-09-14T09:27:34.574Z,1003.21
2023-09-14T09:28:34.498Z,1003.21
2023-09-14T09:29:34.520Z,1003.22
2023-09-14T09:30:36.864Z,1003.22
2023-09-14T09:31:34.504Z,1003.21
2023-09-14T09:32:34.558Z,1003.23
2023-09-14T09:33:34.526Z,1003.22
2023-09-14T09:34:34.475Z,1003.23
2023-09-14T09:35:34.450Z,1003.23
2023-09-14T09:36:34.457Z,1003.23
2023-09-14T09:37:34.438Z,1003.23
2023-09-14T09:38:34.430Z,1003.21
2023-09-14T09:39:34.478Z,1003.21
2023-09-14T09:40:34.479Z,1003.21
2023-09-14T09:41:34.397Z,1003.22
2023-09-14T09:42:34.399Z,1003.23
2023-09-14T09:43:34.412Z,1003.24
2023-09-14T09:44:34.376Z,1003.25
2023-09-14T09:45:34.456Z,1003.25
2023-09-14T09:46:34.481Z,1003.25
2023-09-14T09:47:34.413Z,1003.23
2023-09-14T09:48:34.356Z,1003.21
2023-09-14T09:49:34.422Z,1003.22
2023-09-14T09:50:34.394Z,1003.21
2023-09-14T09:51:34.387Z,1003.21
2023-09-14T09:52:34.432Z,1003.20
2023-09-14T09:53:34.361Z,1003.21
2023-09-14T09:54:34.350Z,1003.21
2023-09-14T09:55:34.405Z,1003.18
2023-09-14T09:56:34.353Z,1003.17
2023-09-14T09:57:34.331Z,1003.17
2023-09-14T09:58:34.405Z,1003.15
2023-09-14T09:59:34.315Z,1003.15
2023-09-14T10:00:34.348Z,1003.14
2023-09-14T10:01:34.367Z,1003.11
2023-09-14T10:02:34.387Z,1003.07
2023-09-14T10:03:34.451Z,1003.04
2023-09-14T10:04:34.317Z,1003.02
2023-09-14T10:05:34.315Z,1002.99
2023-09-14T10:06:34.261Z,1002.97
2023-09-14T10:07:34.256Z,1002.95
2023-09-14T10:08:34.278Z,1002.96
2023-09-14T10:09:34.270Z,1002.96
2023-09-14T10:10:34.225Z,1002.95
2023-09-14T10:11:34.196Z,1002.94
2023-09-14T10:12:34.188Z,1002.92
2023-09-14T10:13:34.190Z,1002.92
2023-09-14T10:14:34.213Z,1002.90
2023-09-14T10:15:34.221Z,1002.89
2023-09-14T10:16:34.219Z,1002.88
2023-09-14T10:17:34.185Z,1002.88
2023-09-14T10:18:34.141Z,1002.87
2023-09-14T10:19:34.461Z,1002.87
2023-09-14T10:20:34.131Z,1002.87
2023-09-14T10:21:34.210Z,1002.87
2023-09-14T10:22:34.127Z,1002.87
2023-09-14T10:23:34.113Z,1002.87
2023-09-14T10:24:34.098Z,1002.89
2023-09-14T10:25:34.121Z,1002.88
2023-09-14T10:26:34.072Z,1002.89
2023-09-14T10:27:34.140Z,1002.89
2023-09-14T10:28:34.080Z,1002.90
2023-09-14T10:29:34.090Z,1002.88
2023-09-14T10:30:34.077Z,1002.87
2023-09-14T10:31:34.178Z,1002.85
2023-09-14T10:32:34.111Z,1002.84
2023-09-14T10:33:34.090Z,1002.84
2023-09-14T10:34:34.033Z,1002.85
2023-09-14T10:35:34.019Z,1002.84
2023-09-14T10:36:34.046Z,1002.84
2023-09-14T10:37:34.089Z,1002.81
2023-09-14T10:38:33.993Z,1002.79
2023-09-14T10:39:34.059Z,1002.78
2023-09-14T10:40:33.999Z,1002.78
2023-09-14T10:41:33.970Z,1002.76
2023-09-14T10:42:33.972Z,1002.74
2023-09-14T10:43:33.975Z,1002.73
2023-09-14T10:44:33.960Z,1002.73
2023-09-14T10:45:33.995Z,1002.74
2023-09-14T10:46:34.133Z,1002.73
2023-09-14T10:47:33.940Z,1002.73
2023-09-14T10:48:33.926Z,1002.72
2023-09-14T10:49:33.965Z,1002.75
2023-09-14T10:50:33.929Z,1002.74
2023-09-14T10:51:33.965Z,1002.75
2023-09-14T10:52:33.888Z,1002.76
2023-09-14T10:53:33.887Z,1002.77
2023-09-14T10:54:33.891Z,1002.76
2023-09-14T10:55:33.900Z,1002.77
2023-09-14T10:56:33.858Z,1002.76
2023-09-14T10:57:33.904Z,1002.75
2023-09-14T10:58:33.860Z,1002.74
2023-09-14T10:59:33.831Z,1002.73
2023-09-14T11:00:53.397Z,1002.73
2023-09-14T11:01:50.158Z,1002.72
2023-09-14T11:02:47.862Z,1002.70
2023-09-14T11:03:34.904Z,1002.69
2023-09-14T11:04:33.945Z,1002.68
2023-09-14T11:05:34.398Z,1002.67
2023-09-14T11:06:34.592Z,1002.65
2023-09-14T11:07:34.557Z,1002.65
2023-09-14T11:08:34.051Z,1002.64
2023-09-14T11:09:34.235Z,1002.64
2023-09-14T11:10:33.874Z,1002.63
2023-09-14T11:11:33.995Z,1002.62
2023-09-14T11:12:34.974Z,1002.61
2023-09-14T11:13:34.876Z,1002.61
2023-09-14T11:14:34.747Z,1002.59
2023-09-14T11:15:33.955Z,1002.57
2023-09-14T11:16:33.862Z,1002.58
2023-09-14T11:17:33.812Z,1002.57
2023-09-14T11:18:35.104Z,1002.57
2023-09-14T11:19:48.019Z,1002.57
2023-09-14T11:20:36.056Z,1002.56
2023-09-14T11:21:36.440Z,1002.55
2023-09-14T11:22:35.224Z,1002.55
2023-09-14T11:23:34.176Z,1002.55
2023-09-14T11:24:34.332Z,1002.55
2023-09-14T11:25:40.646Z,1002.54
2023-09-14T11:26:35.272Z,1002.54
2023-09-14T11:27:34.070Z,1002.56
2023-09-14T11:28:34.158Z,1002.56
2023-09-14T11:29:33.786Z,1002.56
2023-09-14T11:30:33.693Z,1002.54
2023-09-14T11:31:48.601Z,1002.56
2023-09-14T11:32:35.926Z,1002.56
2023-09-14T11:33:35.811Z,1002.55
2023-09-14T11:34:34.403Z,1002.54
2023-09-14T11:35:34.612Z,1002.52
2023-09-14T11:36:35.213Z,1002.51
2023-09-14T11:37:39.328Z,1002.50
2023-09-14T11:38:37.889Z,1002.48
2023-09-14T11:39:36.936Z,1002.48
2023-09-14T11:40:35.722Z,1002.50
2023-09-14T11:41:34.225Z,1002.50
2023-09-14T11:42:34.796Z,1002.49
2023-09-14T11:45:35.971Z,1002.48
2023-09-14T11:46:34.852Z,1002.48
2023-09-14T11:47:34.886Z,1002.47
2023-09-14T11:49:33.496Z,1002.47
2023-09-14T11:50:33.562Z,1002.46
2023-09-14T11:51:33.458Z,1002.45
2023-09-14T11:52:33.446Z,1002.45
2023-09-14T11:53:33.436Z,1002.43
2023-09-14T11:54:33.462Z,1002.43
2023-09-14T11:55:33.438Z,1002.42
2023-09-14T11:56:33.496Z,1002.39
2023-09-14T11:57:33.434Z,1002.40
2023-09-14T11:58:33.418Z,1002.40
2023-09-14T11:59:33.438Z,1002.39
2023-09-14T12:00:33.449Z,1002.38
2023-09-14T12:01:33.404Z,1002.41
2023-09-14T12:02:33.469Z,1002.42
2023-09-14T12:03:33.441Z,1002.44
2023-09-14T12:04:33.468Z,1002.46
2023-09-14T12:05:33.359Z,1002.46
2023-09-14T12:06:33.353Z,1002.45
2023-09-14T12:07:33.351Z,1002.47
2023-09-14T12:08:33.402Z,1002.48
2023-09-14T12:09:39.861Z,1002.46